createdAt,value
2023-04-10T00:01:19.956Z,8.00
2023-04-10T00:03:47.584Z,8.30
2023-04-10T00:06:15.141Z,7.70
2023-04-10T00:08:42.681Z,8.50
2023-04-10T00:11:10.157Z,8.10
2023-04-10T00:13:37.755Z,8.60
2023-04-10T00:16:05.492Z,7.63
2023-04-10T00:18:33.140Z,7.87
2023-04-10T00:21:00.629Z,7.40
2023-04-10T00:23:28.121Z,7.80
2023-04-10T00:25:55.650Z,7.67
2023-04-10T00:28:23.292Z,7.47
2023-04-10T00:30:50.786Z,8.10
2023-04-10T00:33:18.418Z,8.10
2023-04-10T00:35:45.939Z,8.23
2023-04-10T00:38:13.744Z,8.00
2023-04-10T00:40:41.657Z,8.07
2023-04-10T00:43:09.255Z,7.57
2023-04-10T00:45:36.963Z,8.07
2023-04-10T00:48:04.828Z,8.37
2023-04-10T00:50:32.445Z,7.87
2023-04-10T00:53:00.039Z,8.03
2023-04-10T00:55:27.598Z,7.60
2023-04-10T00:57:55.991Z,8.50
2023-04-10T01:00:23.950Z,7.83
2023-04-10T01:02:51.779Z,8.37
2023-04-10T01:05:19.387Z,8.53
2023-04-10T01:07:54.696Z,7.67
2023-04-10T01:10:30.253Z,8.60
2023-04-10T01:13:07.061Z,8.10
2023-04-10T01:15:42.136Z,8.67
2023-04-10T01:18:09.749Z,8.33
2023-04-10T01:20:38.684Z,8.50
2023-04-10T01:23:26.544Z,8.47
2023-04-10T01:25:54.113Z,7.70
2023-04-10T01:28:31.132Z,8.07
2023-04-10T01:30:59.937Z,8.80
2023-04-10T01:33:34.653Z,8.27
2023-04-10T01:36:03.806Z,8.17
2023-04-10T01:38:31.669Z,8.27
2023-04-10T01:41:00.346Z,8.27
2023-04-10T01:43:28.819Z,8.10
2023-04-10T01:45:57.268Z,8.10
2023-04-10T01:48:25.222Z,7.80
2023-04-10T01:50:53.640Z,8.87
2023-04-10T01:53:21.446Z,8.13
2023-04-10T01:55:49.085Z,9.17
2023-04-10T01:58:16.712Z,9.53
2023-04-10T02:00:44.304Z,9.30
2023-04-10T02:03:12.110Z,9.20
2023-04-10T02:05:58.630Z,8.87
2023-04-10T02:08:36.848Z,9.00
2023-04-10T02:11:22.675Z,7.83
2023-04-10T02:13:51.639Z,8.80
2023-04-10T02:16:19.945Z,9.10
2023-04-10T02:18:48.314Z,8.73
2023-04-10T02:21:16.060Z,9.33
2023-04-10T02:23:43.624Z,8.67
2023-04-10T02:26:11.127Z,9.30
2023-04-10T02:28:39.172Z,9.43
2023-04-10T02:31:07.136Z,9.83
2023-04-10T02:33:34.760Z,9.90
2023-04-10T02:36:02.516Z,10.03
2023-04-10T02:38:30.159Z,10.37
2023-04-10T02:40:57.658Z,10.03
2023-04-10T02:43:25.187Z,9.87
2023-04-10T02:45:52.843Z,10.00
2023-04-10T02:48:20.428Z,9.77
2023-04-10T02:50:47.922Z,10.13
2023-04-10T02:53:16.496Z,10.20
2023-04-10T02:55:43.996Z,9.63
2023-04-10T02:58:12.622Z,9.93
2023-04-10T03:00:42.068Z,10.13
2023-04-10T03:03:09.669Z,10.33
2023-04-10T03:05:37.396Z,10.13
2023-04-10T03:08:05.031Z,10.03
2023-04-10T03:10:32.602Z,10.37
2023-04-10T03:13:00.110Z,9.87
2023-04-10T03:15:27.669Z,10.33
2023-04-10T03:17:55.246Z,9.40
2023-04-10T03:20:22.989Z,9.47
2023-04-10T03:22:50.475Z,9.80
2023-04-10T03:25:18.124Z,9.50
2023-04-10T03:27:45.718Z,10.73
2023-04-10T03:30:13.417Z,10.90
2023-04-10T03:32:40.891Z,11.63
2023-04-10T03:35:08.673Z,13.27
2023-04-10T03:37:36.250Z,13.13
2023-04-10T03:40:07.803Z,12.97
2023-04-10T03:42:35.873Z,13.97
2023-04-10T03:45:03.599Z,12.93
2023-04-10T03:47:34.562Z,12.97
2023-04-10T03:50:02.383Z,12.57
2023-04-10T03:52:29.864Z,11.63
2023-04-10T03:54:57.406Z,13.17
2023-04-10T03:57:24.956Z,12.83
2023-04-10T03:59:52.513Z,11.70
2023-04-10T04:02:20.214Z,12.20
2023-04-10T04:04:48.402Z,12.60
2023-04-10T04:07:16.075Z,12.23
2023-04-10T04:09:43.651Z,12.43
2023-04-10T04:12:11.166Z,13.90
2023-04-10T04:14:38.791Z,16.10
2023-04-10T04:17:06.340Z,15.33
2023-04-10T04:19:33.951Z,16.17
2023-04-10T04:22:01.626Z,15.23
2023-04-10T04:24:29.337Z,14.43
2023-04-10T04:26:56.882Z,15.53
2023-04-10T04:29:24.552Z,13.93
2023-04-10T04:31:52.161Z,13.50
2023-04-10T04:34:19.851Z,12.83
2023-04-10T04:36:47.415Z,11.93
2023-04-10T04:39:15.044Z,11.87
2023-04-10T04:41:42.674Z,12.30
2023-04-10T04:44:10.522Z,11.17
2023-04-10T04:46:38.033Z,10.33
2023-04-10T04:49:05.602Z,10.97
2023-04-10T04:51:33.219Z,10.97
2023-04-10T04:54:00.820Z,10.37
2023-04-10T04:56:28.391Z,10.50
2023-04-10T04:58:56.201Z,10.83
2023-04-10T05:01:24.403Z,9.50
2023-04-10T05:03:52.066Z,10.13
2023-04-10T05:06:19.643Z,10.70
2023-04-10T05:08:47.177Z,10.13
2023-04-10T05:11:14.704Z,10.50
2023-04-10T05:13:42.334Z,9.63
2023-04-10T05:16:09.894Z,10.80
2023-04-10T05:18:37.691Z,9.17
2023-04-10T05:21:05.385Z,9.40
2023-04-10T05:23:32.904Z,9.80
2023-04-10T05:26:00.437Z,9.70
2023-04-10T05:28:28.053Z,8.83
2023-04-10T05:30:55.735Z,8.90
2023-04-10T05:33:23.288Z,9.00
2023-04-10T05:35:50.861Z,8.53
2023-04-10T05:38:19.621Z,8.77
2023-04-10T05:40:47.638Z,9.10
2023-04-10T05:43:15.204Z,7.87
2023-04-10T05:45:44.862Z,7.77
2023-04-10T05:48:12.477Z,8.23
2023-04-10T05:50:39.997Z,7.97
2023-04-10T05:53:07.594Z,7.07
2023-04-10T05:55:35.110Z,7.17
2023-04-10T05:58:02.740Z,8.23
2023-04-10T06:00:30.393Z,7.03
2023-04-10T06:02:58.172Z,7.87
2023-04-10T06:05:26.046Z,7.03
2023-04-10T06:07:54.796Z,7.57
2023-04-10T06:10:23.407Z,7.87
2023-04-10T06:12:51.148Z,7.60
2023-04-10T06:15:18.762Z,7.37
2023-04-10T06:17:46.428Z,7.30
2023-04-10T06:20:16.015Z,7.13
2023-04-10T06:22:43.559Z,7.13
2023-04-10T06:25:11.104Z,7.67
2023-04-10T06:27:38.892Z,7.63
2023-04-10T06:30:06.751Z,7.20
2023-04-10T06:32:34.340Z,6.97
2023-04-10T06:35:01.868Z,7.13
2023-04-10T06:37:30.030Z,7.17
2023-04-10T06:40:10.985Z,7.53
2023-04-10T06:42:38.608Z,7.17
2023-04-10T06:45:06.463Z,7.07
2023-04-10T06:47:34.114Z,6.97
2023-04-10T06:50:01.659Z,7.47
2023-04-10T06:52:29.207Z,6.70
2023-04-10T06:54:56.744Z,7.03
2023-04-10T06:57:24.329Z,7.07
2023-04-10T06:59:51.883Z,6.43
2023-04-10T07:02:19.618Z,6.73
2023-04-10T07:04:47.154Z,6.73
2023-04-10T07:07:14.746Z,7.40
2023-04-10T07:09:42.605Z,7.37
2023-04-10T07:12:10.180Z,6.43
2023-04-10T07:14:37.660Z,6.53
2023-04-10T07:17:05.244Z,6.40
2023-04-10T07:19:32.792Z,6.43
2023-04-10T07:22:00.461Z,6.30
2023-04-10T07:24:27.977Z,5.97
2023-04-10T07:26:55.575Z,6.30
2023-04-10T07:29:23.064Z,6.50
2023-04-10T07:31:50.812Z,7.00
2023-04-10T07:34:18.310Z,7.37
2023-04-10T07:36:46.139Z,5.77
2023-04-10T07:39:13.766Z,6.13
2023-04-10T07:41:41.365Z,6.03
2023-04-10T07:44:08.916Z,6.53
2023-04-10T07:46:36.436Z,7.57
2023-04-10T07:49:04.553Z,6.40
2023-04-10T07:51:33.180Z,6.67
2023-04-10T07:54:00.700Z,6.37
2023-04-10T07:56:28.212Z,6.00
2023-04-10T07:58:55.898Z,5.93
2023-04-10T08:01:23.630Z,6.03
2023-04-10T08:03:51.398Z,5.80
2023-04-10T08:06:19.042Z,6.00
2023-04-10T08:08:46.546Z,6.03
2023-04-10T08:11:30.629Z,6.00
2023-04-10T08:13:59.256Z,6.07
2023-04-10T08:16:27.212Z,5.30
2023-04-10T08:18:55.557Z,5.47
2023-04-10T08:21:23.866Z,6.23
2023-04-10T08:23:51.839Z,5.83
2023-04-10T08:26:19.407Z,5.90
2023-04-10T08:28:47.876Z,5.30
2023-04-10T08:31:15.466Z,5.47
2023-04-10T08:33:46.053Z,5.70
2023-04-10T08:36:13.930Z,5.77
2023-04-10T08:38:41.589Z,5.50
2023-04-10T08:41:16.474Z,5.40
2023-04-10T08:43:44.153Z,5.40
2023-04-10T08:46:11.920Z,5.73
2023-04-10T08:48:40.719Z,5.80
2023-04-10T08:51:15.584Z,5.20
2023-04-10T08:53:51.210Z,5.40
2023-04-10T08:56:19.604Z,6.10
2023-04-10T08:58:47.617Z,5.43
2023-04-10T09:01:15.414Z,5.80
2023-04-10T09:03:43.055Z,5.73
2023-04-10T09:06:10.759Z,5.00
2023-04-10T09:08:38.262Z,5.60
2023-04-10T09:11:06.112Z,5.43
2023-04-10T09:13:36.772Z,5.27
2023-04-10T09:16:04.707Z,5.13
2023-04-10T09:18:41.386Z,5.00
2023-04-10T09:21:09.903Z,5.20
2023-04-10T09:23:39.744Z,4.83
2023-04-10T09:26:22.774Z,4.47
2023-04-10T09:28:56.320Z,5.30
2023-04-10T09:31:39.450Z,5.40
2023-04-10T09:34:12.132Z,4.93
2023-04-10T09:36:40.140Z,5.00
2023-04-10T09:39:08.059Z,4.43
2023-04-10T09:41:35.676Z,5.10
2023-04-10T09:44:12.338Z,4.80
2023-04-10T09:46:39.957Z,4.40
2023-04-10T09:49:07.527Z,4.97
2023-04-10T09:51:35.983Z,4.87
2023-04-10T09:54:04.375Z,4.73
2023-04-10T09:56:31.976Z,4.43
2023-04-10T09:59:00.629Z,4.57
2023-04-10T10:01:28.652Z,4.53
2023-04-10T10:03:56.530Z,4.60
2023-04-10T10:06:24.156Z,4.60
2023-04-10T10:08:51.703Z,4.30
2023-04-10T10:11:21.757Z,4.87
2023-04-10T10:13:50.956Z,3.70
2023-04-10T10:16:22.727Z,5.23
2023-04-10T10:19:09.160Z,4.33
2023-04-10T10:21:36.995Z,3.77
2023-04-10T10:24:07.962Z,4.47
2023-04-10T10:26:36.586Z,4.83
2023-04-10T10:29:06.037Z,4.83
2023-04-10T10:31:37.230Z,4.30
2023-04-10T10:34:05.139Z,4.03
2023-04-10T10:36:32.685Z,4.07
2023-04-10T10:39:15.312Z,4.23
2023-04-10T10:41:58.111Z,3.73
2023-04-10T10:44:43.573Z,4.07
2023-04-10T10:47:16.410Z,3.80
2023-04-10T10:49:52.941Z,3.60
2023-04-10T10:52:39.349Z,4.00
2023-04-10T10:55:25.152Z,3.73
2023-04-10T10:57:53.489Z,4.00
2023-04-10T11:00:21.687Z,3.40
2023-04-10T11:03:21.724Z,4.00
2023-04-10T11:05:49.376Z,3.80
2023-04-10T11:08:17.041Z,3.23
2023-04-10T11:11:03.057Z,3.90
2023-04-10T11:13:30.787Z,4.10
2023-04-10T11:15:58.946Z,3.80
2023-04-10T11:18:45.514Z,3.47
2023-04-10T11:21:19.892Z,3.93
2023-04-10T11:23:50.525Z,4.10
2023-04-10T11:26:36.268Z,3.20
2023-04-10T11:29:04.336Z,3.50
2023-04-10T11:31:32.276Z,3.43
2023-04-10T11:34:03.688Z,3.57
2023-04-10T11:36:31.632Z,3.37
2023-04-10T11:39:02.807Z,3.73
2023-04-10T11:41:31.499Z,3.20
2023-04-10T11:43:59.970Z,3.40
2023-04-10T11:46:28.084Z,3.30
2023-04-10T11:48:56.970Z,3.33
2023-04-10T11:51:24.660Z,3.53
2023-04-10T11:54:04.657Z,3.50
2023-04-10T11:56:32.419Z,3.33
2023-04-10T11:58:59.936Z,3.40
2023-04-10T12:01:27.593Z,3.47
2023-04-10T12:03:55.319Z,3.40
2023-04-10T12:06:23.099Z,3.50
2023-04-10T12:08:50.606Z,3.43
2023-04-10T12:11:18.983Z,3.43
2023-04-10T12:13:46.554Z,3.30
2023-04-10T12:16:14.786Z,3.30
2023-04-10T12:18:42.638Z,3.40
2023-04-10T12:21:10.340Z,3.13
2023-04-10T12:23:38.523Z,2.80
2023-04-10T12:26:07.434Z,2.93
2023-04-10T12:28:34.980Z,3.10
2023-04-10T12:31:02.764Z,3.00
2023-04-10T12:33:30.544Z,3.30
2023-04-10T12:35:58.177Z,2.90
2023-04-10T12:38:40.647Z,2.83
2023-04-10T12:41:08.901Z,3.03
2023-04-10T12:43:37.408Z,3.03
2023-04-10T12:46:06.335Z,3.07
2023-04-10T12:48:33.893Z,2.70
2023-04-10T12:51:01.866Z,3.17
2023-04-10T12:53:29.499Z,3.40
2023-04-10T12:56:06.813Z,2.77
2023-04-10T12:58:34.395Z,2.87
2023-04-10T13:01:10.831Z,2.83
2023-04-10T13:03:41.419Z,2.90
2023-04-10T13:06:09.194Z,2.90
2023-04-10T13:08:36.997Z,3.00
2023-04-10T13:11:06.362Z,2.73
2023-04-10T13:13:33.948Z,2.30
2023-04-10T13:16:01.507Z,2.20
2023-04-10T13:18:29.178Z,2.20
2023-04-10T13:20:56.670Z,2.20
2023-04-10T13:23:24.281Z,2.00
2023-04-10T13:25:51.769Z,2.00
2023-04-10T13:28:19.408Z,2.27
2023-04-10T13:30:46.948Z,2.13
2023-04-10T13:33:14.752Z,2.13
2023-04-10T13:35:42.351Z,2.50
2023-04-10T13:38:09.993Z,2.20
2023-04-10T13:40:37.500Z,2.23
2023-04-10T13:43:05.227Z,2.37
2023-04-10T13:45:32.738Z,2.17
2023-04-10T13:48:00.478Z,2.30
2023-04-10T13:50:28.013Z,2.33
2023-04-10T13:52:55.577Z,2.87
2023-04-10T13:55:23.081Z,2.13
2023-04-10T13:57:50.764Z,1.97
2023-04-10T14:00:18.353Z,2.30
2023-04-10T14:02:46.308Z,2.27
2023-04-10T14:05:13.922Z,1.97
2023-04-10T14:07:41.468Z,2.03
2023-04-10T14:10:09.228Z,2.60
2023-04-10T14:12:37.855Z,2.10
2023-04-10T14:15:05.938Z,2.23
2023-04-10T14:17:33.547Z,2.20
2023-04-10T14:20:01.065Z,2.03
2023-04-10T14:22:28.635Z,2.00
2023-04-10T14:25:05.276Z,2.47
2023-04-10T14:27:39.805Z,2.40
2023-04-10T14:30:07.700Z,2.00
2023-04-10T14:32:35.396Z,2.00
2023-04-10T14:35:03.127Z,2.33
2023-04-10T14:37:30.750Z,2.10
2023-04-10T14:39:58.285Z,2.20
2023-04-10T14:42:25.849Z,2.30
2023-04-10T14:44:53.560Z,2.33
2023-04-10T14:47:21.193Z,2.60
2023-04-10T14:49:48.846Z,2.30
2023-04-10T14:52:16.493Z,2.30
2023-04-10T14:54:44.033Z,2.20
2023-04-10T14:57:11.614Z,2.00
2023-04-10T14:59:39.098Z,2.27
2023-04-10T15:02:07.473Z,2.20
2023-04-10T15:04:35.122Z,1.97
2023-04-10T15:07:02.680Z,2.23
2023-04-10T15:09:30.263Z,2.27
2023-04-10T15:11:57.830Z,2.20
2023-04-10T15:14:25.319Z,2.30
2023-04-10T15:16:54.129Z,1.90
2023-04-10T15:19:21.856Z,2.87
2023-04-10T15:21:49.582Z,2.50
2023-04-10T15:24:17.146Z,2.20
2023-04-10T15:26:48.093Z,2.17
2023-04-10T15:29:15.859Z,2.13
2023-04-10T15:31:43.440Z,2.27
2023-04-10T15:34:11.077Z,2.27
2023-04-10T15:36:38.595Z,2.20
2023-04-10T15:39:06.192Z,2.27
2023-04-10T15:41:33.674Z,2.17
2023-04-10T15:44:01.393Z,2.57
2023-04-10T15:46:29.023Z,2.13
2023-04-10T15:48:56.572Z,1.97
2023-04-10T15:51:24.038Z,2.13
2023-04-10T15:53:51.625Z,2.60
2023-04-10T15:56:19.164Z,2.67
2023-04-10T15:58:46.769Z,2.40
2023-04-10T16:01:14.270Z,1.87
2023-04-10T16:03:42.112Z,1.70
2023-04-10T16:06:09.807Z,1.90
2023-04-10T16:08:37.414Z,2.10
2023-04-10T16:11:05.163Z,2.20
2023-04-10T16:13:32.910Z,1.93
2023-04-10T16:16:00.503Z,2.30
2023-04-10T16:18:28.223Z,2.00
2023-04-10T16:20:55.732Z,2.23
2023-04-10T16:23:23.313Z,2.30
2023-04-10T16:25:50.827Z,2.30
2023-04-10T16:28:19.896Z,2.50
2023-04-10T16:30:47.450Z,2.47
2023-04-10T16:33:15.001Z,2.80
2023-04-10T16:35:42.554Z,2.40
2023-04-10T16:38:10.159Z,2.87
2023-04-10T16:40:39.085Z,3.03
2023-04-10T16:43:06.635Z,3.00
2023-04-10T16:45:34.264Z,2.70
2023-04-10T16:48:01.918Z,2.60
2023-04-10T16:50:29.455Z,2.87
2023-04-10T16:52:58.206Z,2.90
2023-04-10T16:55:26.917Z,2.90
2023-04-10T16:57:54.490Z,3.13
2023-04-10T17:00:22.013Z,2.63
2023-04-10T17:02:49.682Z,3.77
2023-04-10T17:05:17.197Z,2.93
2023-04-10T17:07:45.214Z,3.17
2023-04-10T17:10:12.853Z,3.20
2023-04-10T17:12:40.403Z,5.13
2023-04-10T17:15:08.167Z,4.30
2023-04-10T17:17:35.866Z,3.67
2023-04-10T17:20:03.459Z,3.60
2023-04-10T17:22:31.012Z,3.33
2023-04-10T17:24:58.609Z,3.60
2023-04-10T17:27:26.235Z,3.13
2023-04-10T17:29:53.785Z,3.50
2023-04-10T17:32:21.406Z,3.17
2023-04-10T17:34:48.951Z,3.83
2023-04-10T17:37:16.541Z,3.57
2023-04-10T17:39:44.095Z,4.07
2023-04-10T17:42:11.710Z,3.50
2023-04-10T17:44:39.381Z,4.07
2023-04-10T17:47:06.951Z,3.40
2023-04-10T17:49:34.469Z,3.50
2023-04-10T17:52:02.071Z,3.60
2023-04-10T17:54:29.573Z,3.40
2023-04-10T17:56:57.156Z,3.20
2023-04-10T17:59:24.689Z,3.47
2023-04-10T18:01:52.410Z,3.73
2023-04-10T18:04:20.148Z,3.07
2023-04-10T18:06:47.872Z,3.03
2023-04-10T18:09:15.535Z,3.07
2023-04-10T18:11:43.153Z,2.90
2023-04-10T18:14:10.962Z,2.90
2023-04-10T18:16:39.319Z,3.20
2023-04-10T18:19:06.869Z,3.03
2023-04-10T18:21:34.503Z,3.47
2023-04-10T18:24:02.047Z,3.87
2023-04-10T18:26:30.192Z,3.37
2023-04-10T18:28:57.915Z,3.70
2023-04-10T18:31:25.618Z,3.87
2023-04-10T18:34:06.567Z,3.70
2023-04-10T18:36:35.108Z,3.60
2023-04-10T18:39:02.615Z,5.20
2023-04-10T18:41:30.214Z,4.40
2023-04-10T18:44:04.959Z,2.87
2023-04-10T18:46:33.793Z,2.73
2023-04-10T18:49:01.603Z,3.53
2023-04-10T18:51:29.486Z,3.40
2023-04-10T18:53:57.158Z,3.00
2023-04-10T18:56:25.959Z,3.00
2023-04-10T18:58:53.473Z,3.50
2023-04-10T19:01:21.098Z,3.40
2023-04-10T19:03:50.839Z,3.53
2023-04-10T19:06:19.998Z,3.07
2023-04-10T19:08:47.479Z,3.57
2023-04-10T19:11:15.023Z,2.93
2023-04-10T19:13:42.538Z,2.80
2023-04-10T19:16:10.154Z,2.70
2023-04-10T19:18:37.719Z,2.80
2023-04-10T19:21:05.377Z,2.50
2023-04-10T19:23:32.944Z,2.23
2023-04-10T19:26:00.573Z,2.17
2023-04-10T19:28:29.266Z,2.30
2023-04-10T19:30:56.805Z,2.07
2023-04-10T19:33:24.352Z,1.93
2023-04-10T19:35:52.632Z,2.07
2023-04-10T19:38:20.221Z,1.97
2023-04-10T19:40:47.852Z,2.53
2023-04-10T19:43:15.410Z,2.10
2023-04-10T19:45:43.001Z,2.03
2023-04-10T19:48:10.532Z,2.50
2023-04-10T19:50:38.156Z,2.03
2023-04-10T19:53:05.737Z,2.33
2023-04-10T19:55:33.464Z,2.40
2023-04-10T19:58:01.027Z,2.43
2023-04-10T20:00:28.553Z,2.20
2023-04-10T20:02:56.496Z,2.07
2023-04-10T20:05:24.209Z,2.23
2023-04-10T20:07:51.803Z,1.87
2023-04-10T20:10:19.991Z,1.50
2023-04-10T20:12:47.674Z,2.23
2023-04-10T20:15:15.253Z,2.00
2023-04-10T20:17:42.871Z,2.20
2023-04-10T20:20:10.688Z,2.17
2023-04-10T20:22:38.240Z,2.67
2023-04-10T20:25:05.924Z,3.40
2023-04-10T20:27:33.580Z,3.00
2023-04-10T20:30:01.142Z,7.17
2023-04-10T20:32:41.168Z,4.00
2023-04-10T20:35:12.347Z,2.50
2023-04-10T20:37:42.608Z,2.50
2023-04-10T20:40:10.585Z,3.70
2023-04-10T20:42:38.198Z,3.33
2023-04-10T20:45:05.969Z,4.93
2023-04-10T20:47:33.569Z,1.40
2023-04-10T20:50:01.138Z,1.80
2023-04-10T20:52:28.793Z,1.63
2023-04-10T20:54:56.279Z,1.83
2023-04-10T20:57:23.965Z,1.30
2023-04-10T20:59:51.526Z,1.40
2023-04-10T21:02:19.235Z,1.00
2023-04-10T21:04:47.169Z,1.57
2023-04-10T21:07:14.858Z,1.17
2023-04-10T21:09:42.429Z,1.20
2023-04-10T21:12:10.027Z,1.30
2023-04-10T21:14:37.543Z,1.50
2023-04-10T21:17:05.144Z,1.70
2023-04-10T21:19:32.682Z,1.40
2023-04-10T21:22:00.256Z,1.20
2023-04-10T21:24:28.846Z,1.10
2023-04-10T21:26:56.512Z,1.00
2023-04-10T21:29:28.053Z,1.20
2023-04-10T21:31:55.728Z,1.50
2023-04-10T21:34:23.265Z,1.53
2023-04-10T21:36:50.832Z,1.00
2023-04-10T21:39:18.354Z,1.00
2023-04-10T21:41:45.916Z,1.27
2023-04-10T21:44:13.424Z,1.30
2023-04-10T21:46:41.039Z,1.10
2023-04-10T21:49:08.559Z,1.37
2023-04-10T21:51:36.125Z,1.00
2023-04-10T21:54:03.689Z,1.37
2023-04-10T21:56:31.309Z,1.50
2023-04-10T21:58:58.808Z,1.60
2023-04-10T22:01:26.395Z,1.30
2023-04-10T22:03:54.056Z,1.37
2023-04-10T22:06:21.882Z,1.20
2023-04-10T22:08:49.445Z,1.20
2023-04-10T22:11:17.021Z,1.40
2023-04-10T22:13:44.551Z,1.50
2023-04-10T22:16:12.105Z,1.40
2023-04-10T22:18:39.629Z,1.40
2023-04-10T22:21:07.423Z,1.30
2023-04-10T22:23:34.961Z,1.30
2023-04-10T22:26:02.589Z,1.37
2023-04-10T22:28:30.156Z,1.10
2023-04-10T22:30:57.718Z,1.20
2023-04-10T22:33:25.292Z,1.53
2023-04-10T22:35:53.137Z,1.30
2023-04-10T22:38:20.670Z,1.53
2023-04-10T22:40:48.261Z,1.33
2023-04-10T22:43:15.739Z,1.27
2023-04-10T22:45:43.247Z,1.53
2023-04-10T22:48:10.825Z,1.50
2023-04-10T22:50:38.423Z,1.27
2023-04-10T22:53:05.928Z,1.27
2023-04-10T22:55:33.500Z,1.27
2023-04-10T22:58:01.029Z,1.27
2023-04-10T23:00:28.595Z,1.97
2023-04-10T23:02:56.216Z,1.67
2023-04-10T23:05:23.826Z,1.40
2023-04-10T23:07:51.322Z,1.30
2023-04-10T23:10:18.868Z,2.00
2023-04-10T23:12:46.480Z,1.63
2023-04-10T23:15:14.006Z,1.47
2023-04-10T23:17:41.569Z,1.30
2023-04-10T23:20:09.345Z,1.30
2023-04-10T23:22:36.886Z,1.83
2023-04-10T23:25:04.529Z,1.27
2023-04-10T23:27:32.125Z,1.37
2023-04-10T23:30:00.305Z,1.20
2023-04-10T23:32:27.967Z,1.33
2023-04-10T23:34:55.605Z,1.73
2023-04-10T23:37:23.167Z,1.60
2023-04-10T23:39:50.689Z,1.30
2023-04-10T23:42:18.201Z,1.10
2023-04-10T23:44:45.808Z,1.20
2023-04-10T23:47:13.343Z,1.77
2023-04-10T23:49:40.862Z,1.17
2023-04-10T23:52:10.005Z,1.50
2023-04-10T23:54:37.568Z,1.73
2023-04-10T23:57:05.036Z,1.33
2023-04-10T23:59:32.582Z,1.70
